Time;durP1;ratioP1;P1;durP2;ratioP2;P2;SDS_P1;SDS_P2;PMS_P1;PMS_P2;Temp;Humidity;BMP_temperature;BMP_pressure;BME280_temperature;BME280_humidity;BME280_pressure;Samples;Min_cycle;Max_cycle;Signal;HPM_P1;HPM_P2
2022/06/06 00:04:48;;;;;;;2.47;1.90;;;19.70;46.50;;;;;;10524233;28;20759;-79
2022/06/06 00:09:52;;;;;;;4.97;1.97;;;19.60;46.50;;;;;;10550292;27;20227;-79
2022/06/06 00:14:55;;;;;;;5.73;2.40;;;19.50;47.00;;;;;;10559412;28;20222;-80
2022/06/06 00:19:59;;;;;;;3.77;2.00;;;19.50;46.80;;;;;;10554057;28;20223;-79
2022/06/06 00:25:04;;;;;;;2.80;2.07;;;19.50;46.80;;;;;;10559662;28;21023;-79
2022/06/06 00:30:09;;;;;;;2.20;2.00;;;19.60;47.00;;;;;;10567471;28;20242;-79
2022/06/06 00:35:12;;;;;;;1.53;1.43;;;19.60;46.70;;;;;;10558094;28;20223;-79
2022/06/06 00:40:19;;;;;;;1.70;1.57;;;19.50;46.30;;;;;;10559959;28;20233;-79
2022/06/06 00:45:27;;;;;;;2.33;1.93;;;19.60;46.60;;;;;;10556469;28;20227;-79
2022/06/06 00:50:38;;;;;;;3.63;2.07;;;19.60;46.70;;;;;;10563212;28;20456;-79
2022/06/06 00:55:47;;;;;;;2.10;2.00;;;19.50;46.90;;;;;;10564668;28;20241;-80
2022/06/06 01:00:51;;;;;;;2.27;2.00;;;19.40;47.10;;;;;;10564001;28;20222;-80
2022/06/06 01:05:56;;;;;;;2.30;2.10;;;19.30;46.80;;;;;;10557506;27;20229;-80
2022/06/06 01:11:00;;;;;;;3.53;2.20;;;19.30;47.50;;;;;;10548624;28;20575;-80
2022/06/06 01:16:20;;;;;;;2.37;2.10;;;19.20;48.00;;;;;;10563385;28;20588;-79
2022/06/06 01:21:58;;;;;;;2.50;2.30;;;19.20;48.00;;;;;;10550200;28;20249;-80
2022/06/06 01:27:26;;;;;;;4.13;3.07;;;19.20;48.00;;;;;;10548183;28;20673;-79
2022/06/06 01:32:37;;;;;;;3.07;2.77;;;19.10;47.90;;;;;;10559303;28;20242;-79
2022/06/06 01:37:43;;;;;;;4.10;3.30;;;19.20;48.00;;;;;;10554227;28;20219;-79
2022/06/06 01:42:54;;;;;;;4.07;3.33;;;19.20;48.00;;;;;;10561826;28;20860;-80
2022/06/06 01:48:04;;;;;;;3.87;3.07;;;19.10;48.30;;;;;;10563391;28;20225;-80
2022/06/06 01:53:09;;;;;;;5.70;3.30;;;19.20;48.60;;;;;;10558067;28;20215;-80
2022/06/06 01:58:16;;;;;;;4.00;3.10;;;19.10;48.00;;;;;;10547086;28;20308;-80
2022/06/06 02:03:21;;;;;;;3.27;2.97;;;19.20;48.10;;;;;;10549669;28;20231;-80
2022/06/06 02:08:25;;;;;;;3.33;2.67;;;19.20;48.00;;;;;;10557267;28;20219;-80
2022/06/06 02:13:28;;;;;;;3.87;3.07;;;19.20;48.00;;;;;;10563726;28;20233;-80
2022/06/06 02:18:33;;;;;;;2.80;2.50;;;19.10;47.90;;;;;;10567200;27;20256;-80
2022/06/06 02:23:37;;;;;;;4.67;2.70;;;19.10;47.90;;;;;;10572542;27;20229;-80
2022/06/06 02:28:40;;;;;;;3.23;2.50;;;19.20;48.10;;;;;;10564724;27;20302;-80
2022/06/06 02:33:45;;;;;;;3.23;2.60;;;19.20;48.00;;;;;;10567858;28;20243;-80
2022/06/06 02:38:49;;;;;;;3.23;2.60;;;19.20;48.00;;;;;;10566878;27;20746;-80
2022/06/06 02:43:53;;;;;;;3.30;2.30;;;19.20;48.00;;;;;;10564723;27;20682;-80
2022/06/06 02:48:57;;;;;;;2.87;2.67;;;19.20;48.00;;;;;;10567557;27;20227;-80
2022/06/06 02:54:01;;;;;;;2.67;2.47;;;19.30;48.10;;;;;;10566578;27;20808;-81
2022/06/06 02:59:07;;;;;;;3.53;2.57;;;19.30;48.10;;;;;;10553892;28;20778;-80
2022/06/06 03:04:12;;;;;;;3.53;2.53;;;19.30;48.10;;;;;;10572266;27;20310;-79
2022/06/06 03:09:28;;;;;;;3.13;2.57;;;19.30;48.10;;;;;;10562664;27;20313;-79
2022/06/06 03:14:49;;;;;;;3.60;2.63;;;19.40;48.20;;;;;;10566947;27;20244;-79
2022/06/06 03:25:37;;;;;;;2.50;2.30;;;19.40;48.20;;;;;;10538324;27;20224;-79
2022/06/06 03:30:49;;;;;;;2.23;2.03;;;19.30;47.90;;;;;;10555109;27;20211;-79
2022/06/06 03:36:02;;;;;;;2.50;2.30;;;19.40;48.10;;;;;;10565159;28;20219;-79
2022/06/06 03:41:14;;;;;;;2.70;2.50;;;19.30;48.10;;;;;;10569280;28;20250;-79
2022/06/06 03:46:26;;;;;;;4.03;2.83;;;19.30;47.60;;;;;;10552131;27;20223;-79
2022/06/06 03:51:44;;;;;;;3.80;2.80;;;19.30;47.50;;;;;;10563784;27;20255;-79
2022/06/06 03:57:00;;;;;;;3.43;2.40;;;19.30;47.60;;;;;;10560426;28;20599;-79
2022/06/06 04:02:06;;;;;;;3.00;2.70;;;19.30;47.50;;;;;;10562623;28;20229;-79
2022/06/06 04:07:10;;;;;;;3.03;2.40;;;19.30;47.30;;;;;;10548312;28;20228;-79
2022/06/06 04:12:32;;;;;;;3.00;2.13;;;19.20;47.40;;;;;;10566771;27;20219;-79
2022/06/06 04:17:43;;;;;;;4.33;2.93;;;19.20;48.70;;;;;;10558706;27;20517;-79
2022/06/06 04:23:07;;;;;;;4.20;2.87;;;19.20;48.00;;;;;;10559734;27;20289;-79
2022/06/06 04:28:20;;;;;;;3.40;3.10;;;19.20;48.00;;;;;;10556535;27;20225;-79
2022/06/06 04:33:32;;;;;;;3.60;2.83;;;19.20;48.00;;;;;;10559046;28;20234;-79
2022/06/06 04:38:45;;;;;;;3.57;3.20;;;19.20;48.00;;;;;;10550890;28;20816;-79
2022/06/06 04:43:53;;;;;;;5.77;3.30;;;19.20;48.80;;;;;;10539630;28;20225;-79
2022/06/06 04:48:57;;;;;;;3.43;3.10;;;19.20;48.90;;;;;;10509838;28;20215;-79
2022/06/06 04:54:03;;;;;;;3.57;3.27;;;19.20;48.90;;;;;;10519762;28;20231;-80
2022/06/06 04:59:11;;;;;;;3.53;3.33;;;19.20;49.50;;;;;;10515904;28;20215;-79
2022/06/06 05:04:14;;;;;;;4.37;3.57;;;19.20;49.90;;;;;;10513681;28;20212;-79
2022/06/06 05:09:51;;;;;;;4.20;3.10;;;19.30;49.40;;;;;;10520262;28;20223;-79
2022/06/06 05:15:13;;;;;;;3.63;3.33;;;19.40;50.50;;;;;;10514780;28;20225;-79
2022/06/06 05:20:38;;;;;;;3.50;3.20;;;19.50;50.40;;;;;;10519455;28;20230;-79
2022/06/06 05:25:56;;;;;;;3.13;2.90;;;19.60;50.50;;;;;;10512239;28;20215;-79
2022/06/06 05:31:11;;;;;;;2.93;2.73;;;19.60;50.40;;;;;;10519372;28;20251;-79
2022/06/06 05:36:35;;;;;;;4.47;3.43;;;19.80;50.40;;;;;;10516140;28;20639;-79
2022/06/06 05:41:52;;;;;;;3.87;3.40;;;19.90;50.60;;;;;;10500951;28;20219;-79
2022/06/06 05:47:05;;;;;;;3.47;3.23;;;20.10;50.90;;;;;;10522405;28;20219;-79
2022/06/06 05:52:24;;;;;;;4.20;3.27;;;20.20;50.80;;;;;;10516568;28;20222;-79
2022/06/06 05:57:48;;;;;;;3.00;2.80;;;20.40;50.70;;;;;;10518881;28;20228;-79
2022/06/06 06:03:08;;;;;;;3.50;3.30;;;20.50;50.50;;;;;;10514162;28;20235;-79
2022/06/06 06:08:28;;;;;;;4.30;3.60;;;20.70;50.50;;;;;;10521244;28;20215;-79
2022/06/06 06:13:56;;;;;;;3.50;3.20;;;20.90;50.20;;;;;;10524454;28;20232;-80
2022/06/06 06:19:08;;;;;;;3.73;3.30;;;21.00;49.80;;;;;;10514904;28;20224;-79
2022/06/06 06:24:13;;;;;;;3.50;3.20;;;21.10;49.70;;;;;;10514819;28;20227;-79
2022/06/06 06:29:18;;;;;;;3.67;3.37;;;21.10;49.70;;;;;;10518333;28;20231;-80
2022/06/06 06:34:34;;;;;;;4.90;3.37;;;21.30;49.60;;;;;;10521353;28;20220;-79
2022/06/06 06:39:53;;;;;;;3.27;3.07;;;21.40;50.00;;;;;;10519939;28;20223;-79
2022/06/06 06:45:02;;;;;;;3.20;2.90;;;21.50;47.10;;;;;;10515432;28;20224;-79
2022/06/06 06:50:12;;;;;;;3.90;3.20;;;21.60;46.10;;;;;;10549724;28;20231;-79
2022/06/06 06:55:23;;;;;;;3.17;2.77;;;21.70;47.00;;;;;;10557480;28;20231;-80
2022/06/06 07:00:35;;;;;;;5.23;2.87;;;21.80;47.30;;;;;;10557188;28;21040;-79
2022/06/06 07:11:40;;;;;;;3.33;3.10;;;22.00;47.30;;;;;;10520524;28;20687;-79
2022/06/06 07:16:50;;;;;;;3.80;3.37;;;22.10;46.90;;;;;;10503246;28;20909;-79
2022/06/06 07:21:55;;;;;;;3.63;2.90;;;22.30;47.20;;;;;;10515377;28;20229;-79
2022/06/06 07:27:01;;;;;;;3.70;3.10;;;22.40;46.80;;;;;;10526977;28;20258;-80
2022/06/06 07:32:21;;;;;;;3.63;3.10;;;22.50;46.90;;;;;;10512283;28;20216;-79
2022/06/06 07:37:37;;;;;;;3.43;3.23;;;22.60;46.10;;;;;;10507781;28;20227;-79
2022/06/06 07:42:57;;;;;;;3.40;3.10;;;22.70;45.30;;;;;;10515886;28;20216;-79
2022/06/06 07:48:39;;;;;;;3.37;3.17;;;22.60;45.30;;;;;;10515349;28;20221;-79
2022/06/06 07:53:56;;;;;;;3.53;3.23;;;22.70;45.20;;;;;;10539442;27;20283;-79
2022/06/06 07:59:09;;;;;;;3.70;3.40;;;22.80;45.10;;;;;;10557384;28;20235;-79
2022/06/06 08:04:26;;;;;;;3.43;3.00;;;22.90;44.80;;;;;;10523404;28;20235;-79
2022/06/06 08:09:53;;;;;;;3.17;2.97;;;22.90;43.90;;;;;;10545289;27;20226;-74
2022/06/06 08:15:08;;;;;;;3.80;3.50;;;23.00;44.80;;;;;;10531043;28;20243;-74
2022/06/06 08:20:19;;;;;;;3.10;2.90;;;23.00;44.50;;;;;;10524133;28;20233;-74
2022/06/06 08:25:24;;;;;;;5.07;3.33;;;23.00;44.40;;;;;;10531058;28;20227;-74
2022/06/06 08:30:27;;;;;;;2.93;2.73;;;23.10;44.60;;;;;;10534362;27;20712;-74
2022/06/06 08:35:39;;;;;;;3.67;3.10;;;23.20;44.40;;;;;;10614958;27;20234;-74
2022/06/06 08:41:19;;;;;;;3.17;2.97;;;23.20;43.90;;;;;;10614985;27;20245;-74
2022/06/06 08:46:30;;;;;;;3.40;3.17;;;23.30;43.90;;;;;;10614680;27;20694;-74
2022/06/06 08:51:51;;;;;;;3.57;3.27;;;23.40;44.50;;;;;;10614429;27;20319;-74
2022/06/06 08:57:14;;;;;;;3.40;3.10;;;23.50;43.60;;;;;;10614168;27;20230;-74
2022/06/06 09:03:10;;;;;;;3.90;3.57;;;23.70;43.70;;;;;;10614308;27;20704;-74
2022/06/06 09:09:00;;;;;;;3.50;3.20;;;23.80;43.80;;;;;;10614082;27;20238;-74
2022/06/06 09:14:44;;;;;;;4.27;3.20;;;23.80;43.30;;;;;;10613812;27;20237;-74
2022/06/06 09:20:29;;;;;;;3.10;2.90;;;23.90;43.40;;;;;;10613804;27;20272;-74
2022/06/06 09:25:45;;;;;;;3.03;2.77;;;24.00;42.60;;;;;;10614344;27;20241;-74
2022/06/06 09:31:21;;;;;;;3.13;2.80;;;24.20;42.90;;;;;;10622783;27;20232;-74
2022/06/06 09:36:41;;;;;;;4.30;2.97;;;24.30;42.70;;;;;;10622439;27;20222;-74
2022/06/06 09:42:00;;;;;;;3.27;3.07;;;24.40;41.20;;;;;;10622429;27;20752;-74
2022/06/06 09:47:37;;;;;;;2.93;2.73;;;24.30;41.60;;;;;;10621667;27;20222;-74
2022/06/06 09:53:16;;;;;;;2.93;2.73;;;24.30;41.60;;;;;;10621826;27;20226;-74
2022/06/06 09:59:05;;;;;;;4.27;3.00;;;24.30;41.30;;;;;;10621527;27;20229;-74
2022/06/06 10:04:37;;;;;;;2.80;2.60;;;24.30;41.20;;;;;;10621327;27;20238;-74
2022/06/06 10:10:18;;;;;;;2.97;2.77;;;24.40;41.20;;;;;;10621299;27;20226;-74
2022/06/06 10:15:56;;;;;;;3.23;3.03;;;24.50;42.10;;;;;;10620867;27;20233;-74
2022/06/06 10:21:24;;;;;;;3.07;2.87;;;24.80;41.40;;;;;;10620904;27;20222;-74
2022/06/06 10:26:57;;;;;;;2.63;2.50;;;24.90;40.80;;;;;;10535666;28;20223;-74
2022/06/06 10:32:20;;;;;;;2.90;2.70;;;25.00;40.90;;;;;;10535204;28;20227;-74
2022/06/06 10:37:50;;;;;;;2.90;2.70;;;25.10;40.30;;;;;;10493278;28;20228;-74
2022/06/06 10:43:13;;;;;;;2.90;2.70;;;25.10;40.20;;;;;;10493143;28;20246;-74
2022/06/06 10:48:52;;;;;;;2.77;2.57;;;25.10;39.70;;;;;;10493078;28;20232;-74
2022/06/06 10:54:27;;;;;;;2.83;2.63;;;25.20;40.00;;;;;;10492826;28;20228;-74
2022/06/06 11:00:03;;;;;;;3.00;2.80;;;25.30;39.90;;;;;;10492222;28;20699;-74
2022/06/06 11:05:43;;;;;;;3.03;2.77;;;25.40;39.60;;;;;;10517843;28;20730;-74
2022/06/06 11:11:15;;;;;;;3.33;2.97;;;25.60;39.80;;;;;;10534121;28;20245;-74
2022/06/06 11:16:50;;;;;;;3.10;2.80;;;25.70;39.60;;;;;;10533787;28;20231;-74
2022/06/06 11:22:32;;;;;;;3.07;2.77;;;25.70;39.60;;;;;;10533705;28;20231;-74
2022/06/06 11:28:08;;;;;;;2.73;2.53;;;25.80;39.20;;;;;;10533333;28;20774;-74
2022/06/06 11:33:52;;;;;;;3.23;2.93;;;25.80;39.20;;;;;;10533062;28;20315;-74
2022/06/06 11:39:21;;;;;;;2.90;2.70;;;25.80;39.20;;;;;;10533040;28;20280;-74
2022/06/06 11:44:51;;;;;;;2.77;2.63;;;25.90;38.90;;;;;;10505192;28;20223;-74
2022/06/06 11:50:26;;;;;;;3.33;2.80;;;26.00;39.30;;;;;;10531875;28;20711;-74
2022/06/06 11:55:59;;;;;;;2.90;2.70;;;26.10;38.40;;;;;;10531870;28;20234;-74
2022/06/06 12:01:28;;;;;;;2.70;2.43;;;26.30;38.60;;;;;;10522739;28;20245;-74
2022/06/06 12:07:19;;;;;;;3.40;2.43;;;26.40;38.60;;;;;;10512154;28;20261;-74
2022/06/06 12:13:02;;;;;;;2.40;2.20;;;26.50;37.00;;;;;;10506597;28;20227;-74
2022/06/06 12:18:28;;;;;;;2.90;2.60;;;26.60;36.40;;;;;;10528340;28;20230;-73
2022/06/06 12:23:46;;;;;;;2.40;2.30;;;26.70;37.30;;;;;;10531329;28;20933;-74
2022/06/06 12:29:28;;;;;;;2.60;2.40;;;26.80;35.80;;;;;;10530664;28;20233;-73
2022/06/06 12:34:40;;;;;;;2.93;2.73;;;26.80;36.00;;;;;;10530513;28;20242;-74
2022/06/06 12:39:57;;;;;;;2.40;2.30;;;26.70;35.80;;;;;;10530577;28;20227;-74
2022/06/06 12:45:36;;;;;;;2.50;2.30;;;26.70;35.90;;;;;;10530193;28;20265;-74
2022/06/06 12:50:56;;;;;;;3.17;2.23;;;26.80;36.20;;;;;;10612626;27;20260;-73
2022/06/06 12:56:23;;;;;;;2.40;2.30;;;26.90;35.80;;;;;;10614571;27;20236;-74
2022/06/06 13:01:49;;;;;;;2.50;2.30;;;26.90;35.40;;;;;;10529786;28;20231;-74
2022/06/06 13:07:04;;;;;;;2.20;2.10;;;26.90;36.40;;;;;;10529626;28;20232;-73
2022/06/06 13:12:26;;;;;;;1.97;1.83;;;27.00;34.40;;;;;;10529556;28;20219;-74
2022/06/06 13:17:39;;;;;;;2.23;2.10;;;27.10;34.80;;;;;;10529483;28;20676;-73
2022/06/06 13:23:06;;;;;;;3.13;2.00;;;27.10;32.90;;;;;;10529185;28;20851;-73
2022/06/06 13:28:18;;;;;;;2.60;2.00;;;27.20;33.80;;;;;;10542550;28;20226;-73
2022/06/06 13:33:41;;;;;;;1.93;1.80;;;27.20;31.90;;;;;;10571432;28;20238;-73
2022/06/06 13:38:59;;;;;;;2.10;1.90;;;27.10;33.30;;;;;;10571252;28;20280;-73
2022/06/06 13:44:11;;;;;;;1.80;1.70;;;27.10;31.80;;;;;;10579158;27;20231;-73
2022/06/06 13:49:33;;;;;;;2.13;2.03;;;27.10;32.80;;;;;;10571306;28;20227;-73
2022/06/06 13:54:39;;;;;;;2.40;2.10;;;27.10;31.10;;;;;;10570511;28;20241;-73
2022/06/06 14:00:14;;;;;;;2.27;2.10;;;27.10;33.00;;;;;;10570843;28;20243;-73
2022/06/06 14:05:52;;;;;;;2.00;1.90;;;27.20;32.40;;;;;;10564487;28;20231;-73
2022/06/06 14:11:06;;;;;;;1.90;1.80;;;27.30;32.70;;;;;;10568885;28;20233;-73
2022/06/06 14:16:19;;;;;;;2.23;1.90;;;27.30;31.10;;;;;;10571917;28;20305;-73
2022/06/06 14:21:25;;;;;;;1.73;1.63;;;27.40;32.00;;;;;;10578075;28;20706;-73
2022/06/06 14:26:30;;;;;;;1.97;1.87;;;27.40;32.30;;;;;;10578294;28;20219;-73
2022/06/06 14:31:43;;;;;;;2.10;1.90;;;27.40;31.90;;;;;;10577787;27;20743;-73
2022/06/06 14:36:47;;;;;;;2.00;1.90;;;27.50;31.30;;;;;;10577520;28;20237;-73
2022/06/06 14:41:52;;;;;;;2.27;2.07;;;27.50;32.40;;;;;;10577326;27;20735;-73
2022/06/06 14:47:08;;;;;;;2.23;1.97;;;27.50;31.20;;;;;;10577393;28;20229;-73
2022/06/06 14:52:18;;;;;;;2.07;1.97;;;27.60;30.00;;;;;;10577068;27;20722;-73
2022/06/06 14:57:26;;;;;;;1.80;1.70;;;27.60;30.00;;;;;;10577053;27;20234;-73
2022/06/06 15:02:31;;;;;;;1.90;1.80;;;27.70;30.00;;;;;;10576459;28;20718;-73
2022/06/06 15:07:41;;;;;;;1.70;1.60;;;27.80;30.10;;;;;;10576425;28;20288;-73
2022/06/06 15:12:46;;;;;;;2.03;1.93;;;27.90;29.60;;;;;;10576228;27;20230;-73
2022/06/06 15:17:51;;;;;;;2.17;1.73;;;27.90;29.70;;;;;;10575992;28;20234;-73
2022/06/06 15:22:56;;;;;;;2.00;1.80;;;27.80;30.10;;;;;;10574877;27;20226;-73
2022/06/06 15:28:12;;;;;;;1.70;1.50;;;27.80;30.10;;;;;;10575479;28;20219;-73
2022/06/06 15:33:22;;;;;;;1.90;1.80;;;27.90;30.80;;;;;;10575247;27;20232;-73
2022/06/06 15:38:57;;;;;;;1.90;1.73;;;28.00;29.20;;;;;;10575185;27;20248;-73
2022/06/06 15:44:13;;;;;;;2.00;1.80;;;28.10;29.20;;;;;;10559403;28;20239;-73
2022/06/06 15:49:31;;;;;;;1.67;1.50;;;28.20;28.60;;;;;;10532597;28;20218;-73
2022/06/06 15:54:47;;;;;;;1.70;1.60;;;28.30;28.70;;;;;;10532519;28;20227;-73
2022/06/06 16:00:21;;;;;;;1.70;1.60;;;28.40;28.60;;;;;;10564302;27;20235;-73
2022/06/06 16:05:28;;;;;;;2.00;1.90;;;28.40;28.70;;;;;;10574075;28;20250;-73
2022/06/06 16:10:35;;;;;;;1.70;1.60;;;28.40;28.80;;;;;;10573792;28;20233;-73
2022/06/06 16:15:45;;;;;;;2.13;1.63;;;28.50;28.50;;;;;;10573552;27;20891;-73
2022/06/06 16:20:55;;;;;;;2.80;1.90;;;28.50;27.80;;;;;;10573350;27;20227;-73
2022/06/06 16:26:05;;;;;;;1.70;1.60;;;28.60;27.60;;;;;;10573291;27;20797;-73
2022/06/06 16:31:11;;;;;;;1.77;1.67;;;28.60;27.70;;;;;;10572939;28;20252;-73
2022/06/06 16:36:34;;;;;;;1.80;1.70;;;28.60;28.00;;;;;;10572674;28;20239;-73
2022/06/06 16:53:14;;;;;;;1.80;1.70;;;28.70;27.90;;;;;;10488273;28;20742;-73
2022/06/06 16:58:33;;;;;;;3.00;2.13;;;28.70;26.90;;;;;;10554697;28;20660;-73
2022/06/06 17:03:53;;;;;;;1.70;1.60;;;28.70;27.30;;;;;;10572138;27;20227;-73
2022/06/06 17:09:10;;;;;;;1.87;1.77;;;28.60;27.00;;;;;;10571964;28;20227;-73
2022/06/06 17:14:17;;;;;;;3.70;2.23;;;28.40;27.20;;;;;;10571392;27;20231;-73
2022/06/06 17:19:45;;;;;;;1.90;1.80;;;28.30;27.90;;;;;;10590893;27;20219;-73
2022/06/06 17:24:58;;;;;;;1.63;1.60;;;28.30;27.70;;;;;;10531241;27;20255;-73
2022/06/06 17:30:06;;;;;;;2.90;1.90;;;28.20;27.80;;;;;;10529583;28;20227;-73
2022/06/06 17:35:27;;;;;;;1.80;1.70;;;28.20;27.60;;;;;;10570973;27;20703;-73
2022/06/06 17:40:35;;;;;;;3.00;1.77;;;28.20;27.50;;;;;;10570921;28;20733;-73
2022/06/06 17:45:57;;;;;;;1.80;1.70;;;28.20;27.80;;;;;;10570919;28;20241;-73
2022/06/06 17:51:14;;;;;;;1.73;1.63;;;28.20;27.30;;;;;;10579122;27;20237;-73
2022/06/06 17:56:25;;;;;;;1.93;1.50;;;28.20;27.60;;;;;;10579029;28;20248;-73
2022/06/06 18:02:10;;;;;;;2.23;1.70;;;28.20;27.50;;;;;;10578993;27;20733;-73
2022/06/06 18:07:43;;;;;;;2.63;1.70;;;28.20;28.00;;;;;;10578284;27;20689;-73
2022/06/06 18:13:03;;;;;;;2.50;2.40;;;28.20;27.50;;;;;;10578551;27;20237;-73
2022/06/06 18:18:14;;;;;;;4.63;3.33;;;28.20;27.30;;;;;;10578451;28;20227;-73
2022/06/06 18:23:23;;;;;;;2.23;2.13;;;28.10;27.60;;;;;;10578228;27;20231;-73
2022/06/06 18:28:36;;;;;;;3.53;2.03;;;28.00;28.20;;;;;;10578080;27;20226;-73
2022/06/06 18:33:52;;;;;;;2.07;1.70;;;28.00;28.70;;;;;;10577682;28;20227;-73
2022/06/06 18:38:58;;;;;;;1.60;1.50;;;28.00;29.00;;;;;;10577559;27;20223;-73
2022/06/06 18:44:14;;;;;;;1.70;1.60;;;27.90;28.90;;;;;;10577175;28;20245;-73
2022/06/06 18:49:20;;;;;;;2.00;1.83;;;27.90;29.30;;;;;;10577126;28;20234;-73
2022/06/06 18:54:29;;;;;;;2.07;1.97;;;27.80;29.70;;;;;;10576930;27;20254;-73
2022/06/06 18:59:39;;;;;;;1.77;1.67;;;27.70;30.00;;;;;;10576453;27;20707;-73
2022/06/06 19:04:47;;;;;;;1.70;1.60;;;27.60;30.00;;;;;;10576441;28;20237;-73
2022/06/06 19:10:07;;;;;;;2.00;1.80;;;27.50;30.00;;;;;;10576560;27;20239;-73
2022/06/06 19:15:31;;;;;;;1.90;1.80;;;27.40;30.40;;;;;;10568973;28;20231;-73
2022/06/06 19:20:44;;;;;;;2.00;1.90;;;27.30;29.90;;;;;;10576096;27;20787;-73
2022/06/06 19:25:53;;;;;;;1.90;1.80;;;27.20;30.40;;;;;;10575507;27;20234;-73
2022/06/06 19:31:11;;;;;;;1.97;1.87;;;27.00;30.50;;;;;;10575579;27;20231;-73
2022/06/06 19:36:19;;;;;;;2.70;1.90;;;26.90;29.70;;;;;;10575004;27;20230;-73
2022/06/06 19:41:28;;;;;;;2.90;1.90;;;26.60;29.10;;;;;;10574827;27;20722;-72
2022/06/06 19:46:34;;;;;;;1.80;1.70;;;26.40;29.40;;;;;;10574773;27;20237;-73
2022/06/06 19:51:41;;;;;;;2.40;2.00;;;26.30;29.40;;;;;;10575117;27;20229;-73
2022/06/06 19:56:51;;;;;;;1.87;1.77;;;26.10;29.50;;;;;;10574277;28;20839;-73
2022/06/06 20:02:00;;;;;;;2.40;1.93;;;25.90;29.70;;;;;;10574162;27;20309;-73
2022/06/06 20:07:24;;;;;;;3.00;2.80;;;25.80;29.60;;;;;;10573970;27;20231;-73
2022/06/06 20:12:31;;;;;;;2.40;2.20;;;25.70;29.60;;;;;;10540456;28;20226;-73
2022/06/06 20:17:42;;;;;;;2.20;2.00;;;25.60;29.70;;;;;;10573589;28;20257;-73
2022/06/06 20:22:53;;;;;;;2.00;1.90;;;25.50;29.70;;;;;;10573300;28;20277;-73
2022/06/06 20:28:00;;;;;;;2.10;2.00;;;25.40;29.80;;;;;;10573249;28;20222;-73
2022/06/06 20:33:22;;;;;;;2.10;2.00;;;25.40;29.90;;;;;;10579472;27;20226;-73
2022/06/06 20:38:26;;;;;;;2.37;1.90;;;25.30;30.00;;;;;;10595187;27;20229;-73
2022/06/06 20:43:34;;;;;;;2.10;2.00;;;25.30;30.10;;;;;;10580980;27;20223;-73
2022/06/06 20:48:47;;;;;;;3.03;1.93;;;25.20;30.10;;;;;;10572509;28;20230;-72
2022/06/06 20:53:54;;;;;;;2.20;2.10;;;25.20;30.40;;;;;;10572153;28;20226;-73
2022/06/06 20:59:00;;;;;;;2.17;2.07;;;25.20;30.30;;;;;;10572130;28;20227;-73
2022/06/06 21:04:03;;;;;;;2.07;1.97;;;25.10;30.30;;;;;;10571473;28;20254;-73
2022/06/06 21:09:09;;;;;;;2.33;2.13;;;25.00;30.30;;;;;;10571949;28;20233;-73
2022/06/06 21:14:15;;;;;;;2.40;1.80;;;24.90;30.40;;;;;;10571880;28;20227;-73
2022/06/06 21:19:19;;;;;;;2.43;2.00;;;24.90;30.80;;;;;;10605340;27;20342;-73
2022/06/06 21:24:27;;;;;;;2.67;1.90;;;24.80;31.00;;;;;;10594964;27;20227;-73
2022/06/06 21:29:32;;;;;;;2.00;1.90;;;24.80;31.20;;;;;;10571423;28;20355;-73
2022/06/06 21:34:39;;;;;;;2.23;2.00;;;24.80;31.10;;;;;;10571097;28;20230;-73
2022/06/06 21:39:43;;;;;;;2.67;2.10;;;24.70;30.90;;;;;;10591419;27;20326;-73
2022/06/06 21:44:47;;;;;;;2.30;2.10;;;24.70;31.20;;;;;;10603980;27;20249;-73
2022/06/06 21:49:51;;;;;;;2.90;2.00;;;24.60;31.40;;;;;;10592392;27;20233;-73
2022/06/06 21:54:54;;;;;;;2.10;1.97;;;24.50;30.90;;;;;;10570801;28;20234;-73
2022/06/06 21:59:58;;;;;;;2.37;2.27;;;24.40;30.90;;;;;;10571007;28;20223;-73
2022/06/06 22:05:01;;;;;;;2.10;1.90;;;24.40;31.00;;;;;;10578233;27;20234;-73
2022/06/06 22:10:05;;;;;;;2.40;2.20;;;24.30;31.40;;;;;;10562693;27;20207;-73
2022/06/06 22:15:12;;;;;;;2.47;2.27;;;24.30;31.50;;;;;;10570583;28;20231;-73
2022/06/06 22:20:15;;;;;;;2.40;2.30;;;24.30;31.80;;;;;;10570502;28;20656;-73
2022/06/06 22:25:18;;;;;;;2.57;2.37;;;24.20;31.50;;;;;;10570317;28;20234;-73
2022/06/06 22:30:23;;;;;;;2.17;2.07;;;24.10;31.30;;;;;;10570103;28;20704;-73
2022/06/06 22:35:26;;;;;;;3.17;2.33;;;24.10;31.40;;;;;;10575537;28;20358;-73
2022/06/06 22:40:29;;;;;;;2.53;2.30;;;24.10;31.60;;;;;;10577741;28;20222;-72
2022/06/06 22:45:34;;;;;;;2.50;2.40;;;24.00;31.20;;;;;;10577474;27;20235;-72
2022/06/06 22:50:37;;;;;;;2.30;2.20;;;23.90;31.10;;;;;;10577528;28;20227;-73
2022/06/06 22:55:41;;;;;;;2.20;2.00;;;23.80;31.20;;;;;;10576962;27;20246;-73
2022/06/06 23:00:45;;;;;;;2.17;2.07;;;23.60;31.20;;;;;;10576634;27;20234;-73
2022/06/06 23:05:48;;;;;;;2.37;2.10;;;23.50;31.50;;;;;;10574008;27;20231;-73
2022/06/06 23:10:52;;;;;;;2.30;2.10;;;23.50;31.70;;;;;;10576649;27;20215;-73
2022/06/06 23:15:56;;;;;;;2.47;2.00;;;23.50;31.90;;;;;;10576575;28;20233;-73
2022/06/06 23:21:01;;;;;;;2.20;2.00;;;23.40;32.00;;;;;;10576483;28;20230;-73
2022/06/06 23:26:05;;;;;;;2.67;2.50;;;23.40;32.40;;;;;;10575659;27;20235;-73
2022/06/06 23:31:10;;;;;;;2.67;2.50;;;23.40;32.90;;;;;;10575709;28;20226;-73
2022/06/06 23:36:17;;;;;;;2.53;2.37;;;23.40;33.20;;;;;;10575583;28;20322;-73
2022/06/06 23:41:21;;;;;;;3.10;2.40;;;23.40;34.00;;;;;;10575235;27;20230;-73
2022/06/06 23:52:07;;;;;;;2.73;2.53;;;23.30;34.10;;;;;;10574856;27;20597;-73
2022/06/06 23:57:14;;;;;;;2.70;2.40;;;23.20;33.90;;;;;;10574376;28;20227;-73
